Time;durP1;ratioP1;P1;durP2;ratioP2;P2;SDS_P1;SDS_P2;PMS_P1;PMS_P2;Temp;Humidity;BMP_temperature;BMP_pressure;BME280_temperature;BME280_humidity;BME280_pressure;Samples;Min_cycle;Max_cycle;Signal;HPM_P1;HPM_P2
2021/10/11 00:02:17;;;;;;;;;;;11.80;99.90;;;;;;5085656;28;19946;-76
2021/10/11 00:04:45;;;;;;;;;;;11.80;99.90;;;;;;5086779;28;19920;-76
2021/10/11 00:07:11;;;;;;;;;;;11.70;99.90;;;;;;5085632;28;19927;-76
2021/10/11 00:09:38;;;;;;;;;;;11.70;99.90;;;;;;5086220;28;19927;-75
2021/10/11 00:12:05;;;;;;;;;;;11.60;99.90;;;;;;5087847;28;19923;-75
2021/10/11 00:14:32;;;;;;;;;;;11.60;99.90;;;;;;5085319;28;20010;-76
2021/10/11 00:16:58;;;;;;;;;;;11.50;99.90;;;;;;5084565;28;19934;-76
2021/10/11 00:19:25;;;;;;;;;;;11.40;99.90;;;;;;5085090;28;19924;-75
2021/10/11 00:21:53;;;;;;;;;;;11.30;99.90;;;;;;5084729;28;20550;-76
2021/10/11 00:24:20;;;;;;;;;;;11.30;99.90;;;;;;5086032;28;19927;-76
2021/10/11 00:26:46;;;;;;;;;;;11.30;99.90;;;;;;5084121;28;20019;-75
2021/10/11 00:29:13;;;;;;;;;;;11.30;99.90;;;;;;5086037;27;19924;-75
2021/10/11 00:31:40;;;;;;;;;;;11.30;99.90;;;;;;5085589;27;19928;-75
2021/10/11 00:34:06;;;;;;;;;;;11.20;99.90;;;;;;5086000;28;19924;-75
2021/10/11 00:36:33;;;;;;;;;;;11.20;99.90;;;;;;5083673;28;19938;-75
2021/10/11 00:39:01;;;;;;;;;;;11.20;99.90;;;;;;5087676;28;19928;-76
2021/10/11 00:41:31;;;;;;;;;;;11.20;99.90;;;;;;5085883;28;19943;-76
2021/10/11 00:43:58;;;;;;;;;;;11.20;99.90;;;;;;5083563;28;20405;-75
2021/10/11 00:46:25;;;;;;;;;;;11.10;99.90;;;;;;5083033;28;19934;-75
2021/10/11 00:48:51;;;;;;;;;;;11.10;99.90;;;;;;5084513;28;19950;-76
2021/10/11 00:51:18;;;;;;;;;;;11.10;99.90;;;;;;5085952;28;19946;-76
2021/10/11 00:53:45;;;;;;;;;;;11.10;99.90;;;;;;5083863;28;20405;-75
2021/10/11 00:56:13;;;;;;;;;;;11.00;99.90;;;;;;5085080;28;19923;-75
2021/10/11 00:58:40;;;;;;;;;;;11.00;99.90;;;;;;5083936;28;21655;-75
2021/10/11 01:01:06;;;;;;;;;;;11.00;99.90;;;;;;5086122;28;19928;-76
2021/10/11 01:03:33;;;;;;;;;;;11.00;99.90;;;;;;5084415;28;19924;-75
2021/10/11 01:06:00;;;;;;;;;;;11.00;99.90;;;;;;5085666;28;19926;-76
2021/10/11 01:08:26;;;;;;;;;;;10.90;99.90;;;;;;5084350;27;19924;-76
2021/10/11 01:10:53;;;;;;;;;;;10.80;99.90;;;;;;5085815;28;19928;-76
2021/10/11 01:13:21;;;;;;;;;;;10.80;99.90;;;;;;5090519;28;19927;-75
2021/10/11 01:15:48;;;;;;;;;;;10.80;99.90;;;;;;5087545;28;19926;-76
2021/10/11 01:18:14;;;;;;;;;;;10.80;99.90;;;;;;5082975;27;19923;-74
2021/10/11 01:20:42;;;;;;;;;;;10.80;99.90;;;;;;5084861;28;19947;-73
2021/10/11 01:23:11;;;;;;;;;;;10.70;99.90;;;;;;5082679;28;20432;-73
2021/10/11 01:25:37;;;;;;;;;;;10.60;99.90;;;;;;5083722;28;19967;-73
2021/10/11 01:28:04;;;;;;;;;;;10.60;99.90;;;;;;5081913;27;19950;-73
2021/10/11 01:30:31;;;;;;;;;;;10.50;99.90;;;;;;5085595;28;19928;-74
2021/10/11 01:32:57;;;;;;;;;;;10.50;99.90;;;;;;5084209;28;19932;-74
2021/10/11 01:35:24;;;;;;;;;;;10.40;99.90;;;;;;5083995;28;19928;-74
2021/10/11 01:37:52;;;;;;;;;;;10.40;99.90;;;;;;5084540;28;19938;-74
2021/10/11 01:40:20;;;;;;;;;;;10.40;99.90;;;;;;5084597;28;19938;-73
2021/10/11 01:42:47;;;;;;;;;;;10.30;99.90;;;;;;5084422;28;19981;-73
2021/10/11 01:45:14;;;;;;;;;;;10.30;99.90;;;;;;5084379;28;19957;-74
2021/10/11 01:47:40;;;;;;;;;;;10.20;99.90;;;;;;5082365;28;19930;-74
2021/10/11 01:50:08;;;;;;;;;;;10.20;99.90;;;;;;5084277;28;19974;-74
2021/10/11 01:52:35;;;;;;;;;;;10.20;99.90;;;;;;5083467;28;20028;-74
2021/10/11 01:55:04;;;;;;;;;;;10.20;99.90;;;;;;5085242;28;19920;-74
2021/10/11 01:57:30;;;;;;;;;;;10.20;99.90;;;;;;5083251;28;19930;-74
2021/10/11 01:59:57;;;;;;;;;;;10.10;99.90;;;;;;5083426;28;19928;-74
2021/10/11 02:02:24;;;;;;;;;;;10.10;99.90;;;;;;5082076;28;20015;-73
2021/10/11 02:04:50;;;;;;;;;;;10.00;99.90;;;;;;5084321;28;20014;-73
2021/10/11 02:07:17;;;;;;;;;;;10.00;99.90;;;;;;5082140;28;19968;-74
2021/10/11 02:09:43;;;;;;;;;;;10.00;99.90;;;;;;5083593;28;19954;-74
2021/10/11 02:12:11;;;;;;;;;;;10.00;99.90;;;;;;5086121;28;19983;-74
2021/10/11 02:14:38;;;;;;;;;;;10.10;99.90;;;;;;5083545;28;19963;-74
2021/10/11 02:17:05;;;;;;;;;;;10.10;99.90;;;;;;5081694;28;20430;-74
2021/10/11 02:19:31;;;;;;;;;;;10.10;99.90;;;;;;5083001;28;19952;-74
2021/10/11 02:21:58;;;;;;;;;;;10.10;99.90;;;;;;5085049;28;20091;-74
2021/10/11 02:24:25;;;;;;;;;;;10.10;99.90;;;;;;5085841;28;19959;-74
2021/10/11 02:26:51;;;;;;;;;;;10.10;99.90;;;;;;5082040;28;19979;-74
2021/10/11 02:29:19;;;;;;;;;;;10.10;99.90;;;;;;5085327;28;19953;-74
2021/10/11 02:31:46;;;;;;;;;;;10.20;99.90;;;;;;5082116;28;19964;-75
2021/10/11 02:34:13;;;;;;;;;;;10.20;99.90;;;;;;5084469;28;19957;-73
2021/10/11 02:36:39;;;;;;;;;;;10.20;99.90;;;;;;5083111;28;19961;-74
2021/10/11 02:39:06;;;;;;;;;;;10.20;99.90;;;;;;5082995;28;19983;-74
2021/10/11 02:41:33;;;;;;;;;;;10.20;99.90;;;;;;5082924;28;19957;-73
2021/10/11 02:43:59;;;;;;;;;;;10.20;99.90;;;;;;5083705;28;19959;-73
2021/10/11 02:46:27;;;;;;;;;;;10.20;99.90;;;;;;5081783;28;20454;-73
2021/10/11 02:48:54;;;;;;;;;;;10.20;99.90;;;;;;5084075;28;19958;-74
2021/10/11 02:51:21;;;;;;;;;;;10.20;99.90;;;;;;5083051;28;20408;-74
2021/10/11 02:53:49;;;;;;;;;;;10.20;99.90;;;;;;5083555;28;19962;-74
2021/10/11 02:56:16;;;;;;;;;;;10.30;99.90;;;;;;5083243;28;20718;-74
2021/10/11 02:58:43;;;;;;;;;;;10.20;99.90;;;;;;5082156;28;19955;-74
2021/10/11 03:01:10;;;;;;;;;;;10.30;99.90;;;;;;5083048;28;19968;-74
2021/10/11 03:03:38;;;;;;;;;;;10.20;99.90;;;;;;5094022;28;19976;-74
2021/10/11 03:06:04;;;;;;;;;;;10.20;99.90;;;;;;5085242;28;19983;-74
2021/10/11 03:08:32;;;;;;;;;;;10.30;99.90;;;;;;5085901;27;19961;-75
2021/10/11 03:10:58;;;;;;;;;;;10.20;99.90;;;;;;5087371;27;19960;-75
2021/10/11 03:13:25;;;;;;;;;;;10.30;99.90;;;;;;5090076;28;19954;-74
2021/10/11 03:15:52;;;;;;;;;;;10.30;99.90;;;;;;5087222;27;19962;-74
2021/10/11 03:18:18;;;;;;;;;;;10.30;99.90;;;;;;5085564;28;19957;-74
2021/10/11 03:20:46;;;;;;;;;;;10.30;99.90;;;;;;5086655;28;19961;-74
2021/10/11 03:23:13;;;;;;;;;;;10.30;99.90;;;;;;5086322;28;19952;-74
2021/10/11 03:25:40;;;;;;;;;;;10.20;99.90;;;;;;5088298;28;19966;-73
2021/10/11 03:28:06;;;;;;;;;;;10.20;99.90;;;;;;5084690;27;20438;-74
2021/10/11 03:30:33;;;;;;;;;;;10.20;99.90;;;;;;5086290;27;20568;-74
2021/10/11 03:33:00;;;;;;;;;;;10.10;99.90;;;;;;5084164;28;19977;-74
2021/10/11 03:35:26;;;;;;;;;;;10.10;99.90;;;;;;5086185;28;19956;-74
2021/10/11 03:37:54;;;;;;;;;;;10.00;99.90;;;;;;5085831;27;21731;-74
2021/10/11 03:40:21;;;;;;;;;;;9.90;99.90;;;;;;5086009;28;19957;-74
2021/10/11 03:42:48;;;;;;;;;;;9.90;99.90;;;;;;5085269;28;19953;-74
2021/10/11 03:45:14;;;;;;;;;;;9.80;99.90;;;;;;5086476;28;19955;-74
2021/10/11 03:47:41;;;;;;;;;;;9.70;99.90;;;;;;5084805;28;19965;-73
2021/10/11 03:50:08;;;;;;;;;;;9.70;99.90;;;;;;5086701;28;19962;-74
2021/10/11 03:52:35;;;;;;;;;;;9.70;99.90;;;;;;5086455;28;19970;-75
2021/10/11 03:55:03;;;;;;;;;;;9.60;99.90;;;;;;5086268;28;19957;-75
2021/10/11 03:57:30;;;;;;;;;;;9.50;99.90;;;;;;5085012;28;19960;-74
2021/10/11 03:59:56;;;;;;;;;;;9.50;99.90;;;;;;5085739;28;20035;-74
2021/10/11 04:02:23;;;;;;;;;;;9.50;99.90;;;;;;5084306;28;19954;-74
2021/10/11 04:04:50;;;;;;;;;;;9.50;99.90;;;;;;5085904;28;19953;-74
2021/10/11 04:07:18;;;;;;;;;;;9.60;99.90;;;;;;5084927;28;19967;-74
2021/10/11 04:09:46;;;;;;;;;;;9.50;99.90;;;;;;5086210;28;19957;-74
2021/10/11 04:12:19;;;;;;;;;;;9.60;99.90;;;;;;5088078;28;20422;-73
2021/10/11 04:14:45;;;;;;;;;;;9.50;99.90;;;;;;5085532;28;19952;-74
2021/10/11 04:17:12;;;;;;;;;;;9.50;99.90;;;;;;5084291;28;19949;-74
2021/10/11 04:19:39;;;;;;;;;;;9.50;99.90;;;;;;5083553;28;19974;-73
2021/10/11 04:22:06;;;;;;;;;;;9.40;99.90;;;;;;5085787;28;19960;-73
2021/10/11 04:24:32;;;;;;;;;;;9.30;99.90;;;;;;5087562;27;19994;-72
2021/10/11 04:26:59;;;;;;;;;;;9.30;99.90;;;;;;5085278;28;19967;-74
2021/10/11 04:29:27;;;;;;;;;;;9.20;99.90;;;;;;5085634;28;20206;-73
2021/10/11 04:31:53;;;;;;;;;;;9.20;99.90;;;;;;5084059;27;19954;-75
2021/10/11 04:34:20;;;;;;;;;;;9.10;99.90;;;;;;5085163;28;19957;-74
2021/10/11 04:36:47;;;;;;;;;;;9.00;99.90;;;;;;5086149;28;19958;-74
2021/10/11 04:39:13;;;;;;;;;;;9.00;99.90;;;;;;5086553;28;19972;-74
2021/10/11 04:41:40;;;;;;;;;;;9.10;99.90;;;;;;5085676;28;19950;-74
2021/10/11 04:44:07;;;;;;;;;;;9.10;99.90;;;;;;5084898;28;20028;-74
2021/10/11 04:46:35;;;;;;;;;;;9.10;99.90;;;;;;5083557;27;19968;-74
2021/10/11 04:49:02;;;;;;;;;;;9.10;99.90;;;;;;5086737;28;19958;-74
2021/10/11 04:51:28;;;;;;;;;;;9.00;99.90;;;;;;5083143;27;20004;-74
2021/10/11 04:53:55;;;;;;;;;;;9.10;99.90;;;;;;5083307;28;19965;-74
2021/10/11 04:56:21;;;;;;;;;;;9.10;99.90;;;;;;5083400;28;19954;-74
2021/10/11 04:58:48;;;;;;;;;;;9.00;99.90;;;;;;5083139;28;19954;-74
2021/10/11 05:01:16;;;;;;;;;;;9.10;99.90;;;;;;5084132;28;20485;-74
2021/10/11 05:03:44;;;;;;;;;;;9.10;99.90;;;;;;5082931;28;19958;-74
2021/10/11 05:06:11;;;;;;;;;;;9.00;99.90;;;;;;5085293;28;19957;-74
2021/10/11 05:08:38;;;;;;;;;;;9.00;99.90;;;;;;5083170;28;19962;-74
2021/10/11 05:11:04;;;;;;;;;;;9.00;99.90;;;;;;5084548;28;19955;-73
2021/10/11 05:13:31;;;;;;;;;;;8.90;99.90;;;;;;5087812;28;20367;-74
2021/10/11 05:15:59;;;;;;;;;;;8.90;99.90;;;;;;5083743;28;19959;-73
2021/10/11 05:18:26;;;;;;;;;;;8.80;99.90;;;;;;5084173;28;19951;-74
2021/10/11 05:20:57;;;;;;;;;;;8.70;99.90;;;;;;5084214;28;19967;-73
2021/10/11 05:23:24;;;;;;;;;;;8.70;99.90;;;;;;5084118;28;19950;-73
2021/10/11 05:25:51;;;;;;;;;;;8.70;99.90;;;;;;5084504;28;20340;-75
2021/10/11 05:28:18;;;;;;;;;;;8.70;99.90;;;;;;5087123;28;21236;-76
2021/10/11 05:30:45;;;;;;;;;;;8.70;99.90;;;;;;5081906;28;19970;-76
2021/10/11 05:33:12;;;;;;;;;;;8.60;99.90;;;;;;5082576;28;19974;-76
2021/10/11 05:35:39;;;;;;;;;;;8.70;99.90;;;;;;5083384;28;19964;-75
2021/10/11 05:38:07;;;;;;;;;;;8.70;99.90;;;;;;5084952;28;19962;-76
2021/10/11 05:40:33;;;;;;;;;;;8.70;99.90;;;;;;5083971;28;22281;-75
2021/10/11 05:43:00;;;;;;;;;;;8.60;99.90;;;;;;5084793;28;20010;-75
2021/10/11 05:45:26;;;;;;;;;;;8.60;99.90;;;;;;5085869;28;19967;-75
2021/10/11 05:47:54;;;;;;;;;;;8.60;99.90;;;;;;5082392;28;19969;-73
2021/10/11 05:50:20;;;;;;;;;;;8.60;99.90;;;;;;5085118;28;19957;-74
2021/10/11 05:52:47;;;;;;;;;;;8.60;99.90;;;;;;5085292;28;20051;-75
2021/10/11 05:55:18;;;;;;;;;;;8.60;99.90;;;;;;5083230;28;19952;-73
2021/10/11 05:57:45;;;;;;;;;;;8.60;99.90;;;;;;5083269;28;19961;-74
2021/10/11 06:00:14;;;;;;;;;;;8.60;99.90;;;;;;5083662;28;19962;-74
2021/10/11 06:02:41;;;;;;;;;;;8.60;99.90;;;;;;5086227;28;19990;-72
2021/10/11 06:05:08;;;;;;;;;;;8.50;99.90;;;;;;5084808;28;22085;-73
2021/10/11 06:07:35;;;;;;;;;;;8.50;99.90;;;;;;5089921;28;20419;-71
2021/10/11 06:10:01;;;;;;;;;;;8.50;99.90;;;;;;5084780;28;19989;-73
2021/10/11 06:12:29;;;;;;;;;;;8.50;99.90;;;;;;5085974;28;19955;-72
2021/10/11 06:14:56;;;;;;;;;;;8.50;99.90;;;;;;5086428;28;19954;-73
2021/10/11 06:17:23;;;;;;;;;;;8.50;99.90;;;;;;5092655;28;19977;-73
2021/10/11 06:19:49;;;;;;;;;;;8.50;99.90;;;;;;5092841;28;20401;-72
2021/10/11 06:22:16;;;;;;;;;;;8.50;99.90;;;;;;5097077;28;19967;-72
2021/10/11 06:24:43;;;;;;;;;;;8.50;99.90;;;;;;5089658;28;19960;-71
2021/10/11 06:27:09;;;;;;;;;;;8.70;99.90;;;;;;5097108;28;19974;-71
2021/10/11 06:29:37;;;;;;;;;;;8.80;99.90;;;;;;5096738;28;19959;-70
2021/10/11 06:32:04;;;;;;;;;;;8.90;99.90;;;;;;5103128;28;20503;-71
2021/10/11 06:34:31;;;;;;;;;;;8.90;99.90;;;;;;5094176;28;19967;-70
2021/10/11 06:36:58;;;;;;;;;;;8.90;99.90;;;;;;5097213;28;19951;-72
2021/10/11 06:39:24;;;;;;;;;;;9.00;99.90;;;;;;5098887;28;19957;-72
2021/10/11 06:41:51;;;;;;;;;;;9.00;99.90;;;;;;5092566;28;19949;-72
2021/10/11 06:44:18;;;;;;;;;;;9.00;99.90;;;;;;5100896;28;20044;-72
2021/10/11 06:46:49;;;;;;;;;;;9.10;99.90;;;;;;5099872;28;20023;-71
2021/10/11 06:49:15;;;;;;;;;;;9.20;99.90;;;;;;5094967;28;19948;-72
2021/10/11 06:51:42;;;;;;;;;;;9.20;99.90;;;;;;5095219;28;20080;-70
2021/10/11 06:54:09;;;;;;;;;;;9.20;99.90;;;;;;5100178;28;19952;-71
2021/10/11 06:56:35;;;;;;;;;;;9.30;99.90;;;;;;5097525;27;20039;-72
2021/10/11 06:59:02;;;;;;;;;;;9.30;99.90;;;;;;5093929;28;20029;-72
2021/10/11 07:01:29;;;;;;;;;;;9.30;99.90;;;;;;5092467;28;20457;-71
2021/10/11 07:03:57;;;;;;;;;;;9.40;99.90;;;;;;5097058;28;19996;-73
2021/10/11 07:06:25;;;;;;;;;;;9.50;99.90;;;;;;5102955;28;19988;-72
2021/10/11 07:08:52;;;;;;;;;;;9.50;99.90;;;;;;5094991;28;20060;-72
2021/10/11 07:11:18;;;;;;;;;;;9.50;99.90;;;;;;5098910;28;19956;-72
2021/10/11 07:13:45;;;;;;;;;;;9.60;99.90;;;;;;5092623;28;19962;-72
2021/10/11 07:16:12;;;;;;;;;;;9.60;99.90;;;;;;5097576;28;19960;-73
2021/10/11 07:18:39;;;;;;;;;;;9.60;99.90;;;;;;5092299;28;19955;-72
2021/10/11 07:21:07;;;;;;;;;;;9.70;99.90;;;;;;5098444;28;20641;-72
2021/10/11 07:23:35;;;;;;;;;;;9.70;99.90;;;;;;5105392;28;19956;-74
2021/10/11 07:26:03;;;;;;;;;;;9.70;99.90;;;;;;5095878;28;22298;-72
2021/10/11 07:28:30;;;;;;;;;;;9.70;99.90;;;;;;5102808;28;19975;-74
2021/10/11 07:30:56;;;;;;;;;;;9.80;99.90;;;;;;5095899;28;20397;-72
2021/10/11 07:33:23;;;;;;;;;;;9.90;99.90;;;;;;5096686;27;19960;-73
2021/10/11 07:35:50;;;;;;;;;;;9.90;99.90;;;;;;5098439;28;19998;-74
2021/10/11 07:38:18;;;;;;;;;;;10.00;99.90;;;;;;5100960;28;19958;-73
2021/10/11 07:40:45;;;;;;;;;;;10.20;99.90;;;;;;5097470;28;19959;-72
2021/10/11 07:43:12;;;;;;;;;;;10.30;99.90;;;;;;5103066;28;19983;-72
2021/10/11 07:45:38;;;;;;;;;;;10.30;99.90;;;;;;5097111;28;20052;-73
2021/10/11 07:48:05;;;;;;;;;;;10.40;99.90;;;;;;5106626;28;19976;-74
2021/10/11 07:50:32;;;;;;;;;;;10.40;99.90;;;;;;5101745;28;19953;-72
2021/10/11 07:52:58;;;;;;;;;;;10.60;99.90;;;;;;5097692;28;19956;-71
2021/10/11 07:55:26;;;;;;;;;;;10.70;99.90;;;;;;5097442;28;20009;-74
2021/10/11 07:57:53;;;;;;;;;;;10.80;99.90;;;;;;5101179;28;20333;-72
2021/10/11 08:00:20;;;;;;;;;;;10.90;99.90;;;;;;5095335;28;20054;-74
2021/10/11 08:02:47;;;;;;;;;;;11.10;99.90;;;;;;5098607;28;19976;-73
2021/10/11 08:05:14;;;;;;;;;;;11.20;99.90;;;;;;5105894;28;20458;-73
2021/10/11 08:07:41;;;;;;;;;;;11.40;99.90;;;;;;5103030;28;19978;-72
2021/10/11 08:10:08;;;;;;;;;;;11.70;99.90;;;;;;5106008;28;19967;-73
2021/10/11 08:12:36;;;;;;;;;;;12.10;99.90;;;;;;5099096;28;19953;-75
2021/10/11 08:15:03;;;;;;;;;;;12.00;99.90;;;;;;5096517;28;19958;-72
2021/10/11 08:17:30;;;;;;;;;;;12.00;99.90;;;;;;5095444;28;19958;-73
2021/10/11 08:19:57;;;;;;;;;;;12.00;99.90;;;;;;5094890;28;19957;-73
2021/10/11 08:22:24;;;;;;;;;;;12.00;99.90;;;;;;5092110;28;20031;-74
2021/10/11 08:24:51;;;;;;;;;;;12.00;99.90;;;;;;5097113;28;19946;-77
2021/10/11 08:27:18;;;;;;;;;;;12.20;99.90;;;;;;5102890;28;19969;-75
2021/10/11 08:29:51;;;;;;;;;;;12.20;99.90;;;;;;5098167;28;19950;-72
2021/10/11 08:32:17;;;;;;;;;;;12.30;99.90;;;;;;5096433;28;20016;-75
2021/10/11 08:34:44;;;;;;;;;;;12.50;99.90;;;;;;5096975;28;20127;-76
2021/10/11 08:37:11;;;;;;;;;;;12.60;99.90;;;;;;5102266;28;20332;-76
2021/10/11 08:39:37;;;;;;;;;;;12.80;99.90;;;;;;5100309;28;19972;-75
2021/10/11 08:42:05;;;;;;;;;;;13.00;99.90;;;;;;5100156;28;19968;-75
2021/10/11 08:44:31;;;;;;;;;;;13.60;99.90;;;;;;5101560;28;19949;-73
2021/10/11 08:47:00;;;;;;;;;;;15.00;99.90;;;;;;5103019;28;20066;-74
2021/10/11 08:49:26;;;;;;;;;;;16.50;99.90;;;;;;5104042;28;20366;-76
2021/10/11 08:51:53;;;;;;;;;;;18.00;99.90;;;;;;5098550;28;20058;-76
2021/10/11 08:54:20;;;;;;;;;;;17.90;99.40;;;;;;5106181;28;20025;-77
2021/10/11 08:56:47;;;;;;;;;;;17.10;98.90;;;;;;5106948;28;19941;-76
2021/10/11 08:59:14;;;;;;;;;;;16.30;99.90;;;;;;5113372;28;19954;-75
2021/10/11 09:01:40;;;;;;;;;;;15.70;99.90;;;;;;5106419;28;19953;-76
2021/10/11 09:04:18;;;;;;;;;;;15.20;99.90;;;;;;5105899;28;19951;-75
2021/10/11 09:06:48;;;;;;;;;;;15.10;99.90;;;;;;5101875;28;20030;-76
2021/10/11 09:09:15;;;;;;;;;;;15.60;99.90;;;;;;5112052;28;19958;-76
2021/10/11 09:11:46;;;;;;;;;;;15.90;99.90;;;;;;5108544;28;20003;-75
2021/10/11 09:14:22;;;;;;;;;;;15.50;99.90;;;;;;5109418;28;20375;-76
2021/10/11 09:16:56;;;;;;;;;;;15.00;99.90;;;;;;5110185;28;19945;-76
2021/10/11 09:19:31;;;;;;;;;;;14.70;99.90;;;;;;5104879;28;19944;-76
2021/10/11 09:21:58;;;;;;;;;;;14.40;99.90;;;;;;5111416;28;20005;-76
2021/10/11 09:24:24;;;;;;;;;;;14.20;99.90;;;;;;5104959;28;19949;-76
2021/10/11 09:26:52;;;;;;;;;;;14.10;99.90;;;;;;5108865;28;19957;-75
2021/10/11 09:29:28;;;;;;;;;;;14.00;99.90;;;;;;5106986;28;19961;-74
2021/10/11 09:31:55;;;;;;;;;;;14.00;99.90;;;;;;5105683;28;19945;-74
2021/10/11 09:34:23;;;;;;;;;;;14.10;99.90;;;;;;5104088;28;19947;-73
2021/10/11 09:36:58;;;;;;;;;;;14.20;99.90;;;;;;5104004;28;19948;-75
2021/10/11 09:39:29;;;;;;;;;;;14.30;99.90;;;;;;5103748;28;19968;-72
2021/10/11 09:41:57;;;;;;;;;;;14.30;99.90;;;;;;5103558;28;19937;-75
2021/10/11 09:44:24;;;;;;;;;;;14.40;99.90;;;;;;5107033;28;19940;-75
2021/10/11 09:46:56;;;;;;;;;;;14.50;99.90;;;;;;5111010;28;19968;-74
2021/10/11 09:49:24;;;;;;;;;;;14.50;99.90;;;;;;5104233;28;20331;-74
2021/10/11 09:51:52;;;;;;;;;;;14.70;99.90;;;;;;5109363;28;19951;-75
2021/10/11 09:54:24;;;;;;;;;;;14.70;99.90;;;;;;5107625;28;19947;-74
2021/10/11 09:56:51;;;;;;;;;;;14.80;99.90;;;;;;5104483;28;20036;-74
2021/10/11 09:59:18;;;;;;;;;;;15.10;99.90;;;;;;5106964;28;20453;-74
2021/10/11 10:01:51;;;;;;;;;;;15.30;99.90;;;;;;5108508;28;20312;-74
2021/10/11 10:04:18;;;;;;;;;;;15.50;99.90;;;;;;5102593;28;20037;-75
2021/10/11 10:06:48;;;;;;;;;;;15.70;99.90;;;;;;5102181;28;20386;-74
2021/10/11 10:09:17;;;;;;;;;;;15.80;99.90;;;;;;5108735;28;19961;-74
2021/10/11 10:11:49;;;;;;;;;;;15.50;99.90;;;;;;5106359;28;19937;-75
2021/10/11 10:14:22;;;;;;;;;;;15.30;99.90;;;;;;5105892;28;19942;-74
2021/10/11 10:16:52;;;;;;;;;;;15.10;99.90;;;;;;5113281;28;20502;-75
2021/10/11 10:19:20;;;;;;;;;;;15.20;99.90;;;;;;5110426;28;20403;-74
2021/10/11 10:21:50;;;;;;;;;;;15.30;99.90;;;;;;5110280;28;20406;-74
2021/10/11 10:24:27;;;;;;;;;;;15.20;99.90;;;;;;5114346;28;19991;-76
2021/10/11 10:27:13;;;;;;;;;;;15.30;99.90;;;;;;5108611;28;19983;-76
2021/10/11 10:29:42;;;;;;;;;;;15.40;99.90;;;;;;5104151;28;20001;-74
2021/10/11 10:32:10;;;;;;;;;;;15.40;99.90;;;;;;5110132;28;19956;-75
2021/10/11 10:34:37;;;;;;;;;;;15.40;99.90;;;;;;5112856;28;19966;-76
2021/10/11 10:37:05;;;;;;;;;;;15.40;99.90;;;;;;5108722;28;20045;-73
2021/10/11 10:39:39;;;;;;;;;;;15.50;99.90;;;;;;5108771;28;19939;-74
2021/10/11 10:42:07;;;;;;;;;;;15.30;99.90;;;;;;5112947;28;19942;-73
2021/10/11 10:44:42;;;;;;;;;;;15.20;99.90;;;;;;5110013;28;19941;-74
2021/10/11 10:47:11;;;;;;;;;;;15.20;99.90;;;;;;5110324;28;19938;-75
2021/10/11 10:49:44;;;;;;;;;;;15.50;99.90;;;;;;5112876;28;19956;-73
2021/10/11 10:52:12;;;;;;;;;;;15.80;99.90;;;;;;5112930;28;19987;-75
2021/10/11 10:54:40;;;;;;;;;;;15.90;99.90;;;;;;5110740;28;19941;-76
2021/10/11 10:57:07;;;;;;;;;;;16.20;99.90;;;;;;5110553;28;20030;-74
2021/10/11 10:59:34;;;;;;;;;;;16.40;99.90;;;;;;5114264;28;20025;-76
2021/10/11 11:02:12;;;;;;;;;;;16.50;99.90;;;;;;5109102;28;19946;-74
2021/10/11 11:04:51;;;;;;;;;;;16.50;99.90;;;;;;5113158;28;19940;-77
2021/10/11 11:07:21;;;;;;;;;;;16.50;99.90;;;;;;5111761;28;20020;-74
2021/10/11 11:09:48;;;;;;;;;;;16.30;99.90;;;;;;5108667;28;19982;-75
2021/10/11 11:12:28;;;;;;;;;;;16.10;99.90;;;;;;5109610;28;19920;-75
2021/10/11 11:14:57;;;;;;;;;;;16.00;99.90;;;;;;5102989;28;20032;-74
2021/10/11 11:17:29;;;;;;;;;;;16.20;99.90;;;;;;5105041;28;19947;-75
2021/10/11 11:19:56;;;;;;;;;;;16.20;99.90;;;;;;5107627;28;19940;-75
2021/10/11 11:22:30;;;;;;;;;;;16.40;99.90;;;;;;5110524;28;19948;-74
2021/10/11 11:25:05;;;;;;;;;;;16.70;99.90;;;;;;5110168;28;20023;-75
2021/10/11 11:27:32;;;;;;;;;;;16.60;99.90;;;;;;5111451;28;19955;-75
2021/10/11 11:30:00;;;;;;;;;;;16.50;99.90;;;;;;5099324;28;19957;-75
2021/10/11 11:32:29;;;;;;;;;;;16.30;99.90;;;;;;5109461;28;19938;-73
2021/10/11 11:34:59;;;;;;;;;;;16.20;99.90;;;;;;5105121;28;19960;-75
2021/10/11 11:37:25;;;;;;;;;;;16.10;99.90;;;;;;5104653;28;19944;-74
2021/10/11 11:40:07;;;;;;;;;;;15.90;99.90;;;;;;5107733;28;19960;-74
2021/10/11 11:42:37;;;;;;;;;;;15.70;99.90;;;;;;5111605;28;20728;-74
2021/10/11 11:45:07;;;;;;;;;;;15.60;99.90;;;;;;5110419;28;19924;-74
2021/10/11 11:47:35;;;;;;;;;;;15.60;99.90;;;;;;5112420;28;19998;-75
2021/10/11 11:50:03;;;;;;;;;;;15.80;99.90;;;;;;5108161;28;20006;-74
2021/10/11 11:52:35;;;;;;;;;;;16.00;99.90;;;;;;5106350;28;20397;-69
2021/10/11 11:55:02;;;;;;;;;;;16.00;99.90;;;;;;5109308;28;20346;-70
2021/10/11 11:57:39;;;;;;;;;;;16.20;99.90;;;;;;5112113;28;20386;-71
2021/10/11 12:00:07;;;;;;;;;;;16.20;99.90;;;;;;5102091;28;19970;-74
2021/10/11 12:02:37;;;;;;;;;;;16.30;99.90;;;;;;5104590;28;19951;-73
2021/10/11 12:05:04;;;;;;;;;;;16.40;99.90;;;;;;5102385;28;20039;-73
2021/10/11 12:07:36;;;;;;;;;;;16.60;99.90;;;;;;5099634;28;20393;-73
2021/10/11 12:10:02;;;;;;;;;;;16.70;99.90;;;;;;5108581;28;20033;-72
2021/10/11 12:12:32;;;;;;;;;;;16.80;99.90;;;;;;5111950;28;20361;-74
2021/10/11 12:14:59;;;;;;;;;;;16.90;99.90;;;;;;5108601;28;19957;-76
2021/10/11 12:17:31;;;;;;;;;;;17.00;99.90;;;;;;5109286;28;19944;-77
2021/10/11 12:20:01;;;;;;;;;;;17.00;99.90;;;;;;5106276;28;20036;-77
2021/10/11 12:22:30;;;;;;;;;;;17.00;99.90;;;;;;5111976;28;19934;-77
2021/10/11 12:25:00;;;;;;;;;;;17.10;99.90;;;;;;5106255;28;19950;-78
2021/10/11 12:27:29;;;;;;;;;;;17.20;99.90;;;;;;5105067;28;20351;-77
2021/10/11 12:30:00;;;;;;;;;;;17.20;99.90;;;;;;5107806;28;19981;-76
2021/10/11 12:32:31;;;;;;;;;;;17.20;99.90;;;;;;5107434;28;19920;-76
2021/10/11 12:35:02;;;;;;;;;;;17.00;98.80;;;;;;5107450;28;20005;-75
2021/10/11 12:37:35;;;;;;;;;;;17.00;97.90;;;;;;5097666;28;19920;-75
2021/10/11 12:40:02;;;;;;;;;;;16.90;96.90;;;;;;5105996;28;20014;-76
2021/10/11 12:42:30;;;;;;;;;;;16.80;96.60;;;;;;5107411;28;19978;-76
2021/10/11 12:45:01;;;;;;;;;;;16.70;96.90;;;;;;5109225;28;19979;-75
2021/10/11 12:47:29;;;;;;;;;;;16.70;96.60;;;;;;5110248;28;19953;-72
2021/10/11 12:50:00;;;;;;;;;;;17.00;96.90;;;;;;5106685;28;19965;-71
2021/10/11 12:52:35;;;;;;;;;;;17.20;96.00;;;;;;5108295;28;19963;-71
2021/10/11 12:55:06;;;;;;;;;;;17.20;96.10;;;;;;5108596;28;20393;-71
2021/10/11 12:57:36;;;;;;;;;;;17.30;96.10;;;;;;5101223;28;19985;-72
2021/10/11 13:00:06;;;;;;;;;;;17.20;95.40;;;;;;5106932;28;20075;-72
2021/10/11 13:02:33;;;;;;;;;;;17.00;94.20;;;;;;5108942;28;20040;-72
2021/10/11 13:05:00;;;;;;;;;;;16.90;94.00;;;;;;5107860;28;19950;-71
2021/10/11 13:07:27;;;;;;;;;;;16.60;94.30;;;;;;5110436;28;19947;-71
2021/10/11 13:09:55;;;;;;;;;;;16.40;94.50;;;;;;5108370;28;19945;-73
2021/10/11 13:12:25;;;;;;;;;;;16.40;94.60;;;;;;5107923;28;20042;-72
2021/10/11 13:14:51;;;;;;;;;;;16.30;94.60;;;;;;5108808;28;19961;-72
2021/10/11 13:17:18;;;;;;;;;;;16.40;94.80;;;;;;5111424;28;19945;-72
2021/10/11 13:19:47;;;;;;;;;;;16.70;94.80;;;;;;5110227;28;20058;-71
2021/10/11 13:22:14;;;;;;;;;;;17.00;94.40;;;;;;5111096;28;19920;-72
2021/10/11 13:24:41;;;;;;;;;;;17.30;93.90;;;;;;5110680;28;19926;-74
2021/10/11 13:27:09;;;;;;;;;;;17.80;93.50;;;;;;5102904;28;20032;-73
2021/10/11 14:27:43;;;;;;;;;;;15.70;98.70;;;;;;5065692;28;20075;-72
2021/10/11 14:30:17;;;;;;;;;;;15.70;98.80;;;;;;5076749;28;20019;-73
2021/10/11 14:32:55;;;;;;;;;;;15.70;98.70;;;;;;5083401;28;19931;-73
2021/10/11 16:00:44;;;;;;;;;;;14.90;98.60;;;;;;5106028;28;20266;-79
2021/10/11 16:03:28;;;;;;;;;;;14.80;99.10;;;;;;5102930;28;19943;-80
2021/10/11 16:05:55;;;;;;;;;;;14.80;99.50;;;;;;5104259;28;19938;-81
2021/10/11 16:08:21;;;;;;;;;;;14.70;99.80;;;;;;5109573;28;20341;-80
2021/10/11 16:10:49;;;;;;;;;;;14.70;99.90;;;;;;5109830;28;19926;-79
2021/10/11 16:13:16;;;;;;;;;;;14.70;99.90;;;;;;5104313;28;19924;-81
2021/10/11 16:15:44;;;;;;;;;;;14.70;99.90;;;;;;5109255;28;19930;-81
2021/10/11 16:18:11;;;;;;;;;;;14.80;99.90;;;;;;5112062;28;19997;-81
2021/10/11 16:20:38;;;;;;;;;;;14.80;99.90;;;;;;5105987;28;20342;-80
2021/10/11 16:23:05;;;;;;;;;;;14.80;99.90;;;;;;5104268;28;19927;-79
2021/10/11 16:25:32;;;;;;;;;;;14.80;99.90;;;;;;5104076;28;20018;-80
2021/10/11 16:28:00;;;;;;;;;;;14.70;99.90;;;;;;5095504;28;20375;-83
2021/10/11 16:30:27;;;;;;;;;;;14.60;99.90;;;;;;5101664;28;20394;-82
2021/10/11 16:32:54;;;;;;;;;;;14.60;99.90;;;;;;5102518;28;19958;-78
2021/10/11 16:35:20;;;;;;;;;;;14.60;99.90;;;;;;5100566;28;19963;-78
2021/10/11 16:37:47;;;;;;;;;;;14.60;99.90;;;;;;5106908;28;19924;-79
2021/10/11 16:40:14;;;;;;;;;;;14.50;99.90;;;;;;5099847;28;20014;-79
2021/10/11 16:42:41;;;;;;;;;;;14.40;99.90;;;;;;5103727;28;20000;-81
2021/10/11 16:45:09;;;;;;;;;;;14.40;99.90;;;;;;5101962;28;20370;-78
2021/10/11 16:47:36;;;;;;;;;;;14.40;99.90;;;;;;5098260;28;20007;-79
2021/10/11 16:50:03;;;;;;;;;;;14.30;99.90;;;;;;5100475;28;20048;-79